sensor_id;sensor_type;location;lat;lon;timestamp;pressure;altitude;pressure_sealevel;temperature;humidity
24280;BME280;12395;42.808;23.408;2023-02-12T00:01:23;95871.13;;;-2.92;79.35
24280;BME280;12395;42.808;23.408;2023-02-12T00:03:48;95867.28;;;-2.99;79.19
24280;BME280;12395;42.808;23.408;2023-02-12T00:06:14;95869.16;;;-2.89;79.10
24280;BME280;12395;42.808;23.408;2023-02-12T00:08:40;95868.22;;;-3.00;79.08
24280;BME280;12395;42.808;23.408;2023-02-12T00:11:11;95872.78;;;-3.04;79.38
24280;BME280;12395;42.808;23.408;2023-02-12T00:13:37;95872.13;;;-3.07;79.45
24280;BME280;12395;42.808;23.408;2023-02-12T00:16:07;95884.69;;;-3.01;79.35
24280;BME280;12395;42.808;23.408;2023-02-12T00:18:33;95880.63;;;-3.05;79.53
24280;BME280;12395;42.808;23.408;2023-02-12T00:20:59;95880.84;;;-3.08;79.52
24280;BME280;12395;42.808;23.408;2023-02-12T00:23:25;95878.44;;;-3.12;80.15
24280;BME280;12395;42.808;23.408;2023-02-12T00:25:50;95878.03;;;-3.05;80.31
24280;BME280;12395;42.808;23.408;2023-02-12T00:28:16;95880.34;;;-3.01;80.08
24280;BME280;12395;42.808;23.408;2023-02-12T00:30:41;95861.03;;;-3.09;79.90
24280;BME280;12395;42.808;23.408;2023-02-12T00:33:07;95869.88;;;-2.99;79.82
24280;BME280;12395;42.808;23.408;2023-02-12T00:35:32;95850.06;;;-3.13;80.22
24280;BME280;12395;42.808;23.408;2023-02-12T00:37:57;95856.25;;;-3.16;80.51
24280;BME280;12395;42.808;23.408;2023-02-12T00:40:23;95856.94;;;-2.99;80.32
24280;BME280;12395;42.808;23.408;2023-02-12T00:42:48;95846.22;;;-2.95;80.35
24280;BME280;12395;42.808;23.408;2023-02-12T00:45:14;95840.13;;;-2.94;79.97
24280;BME280;12395;42.808;23.408;2023-02-12T00:47:39;95836.19;;;-2.87;80.08
24280;BME280;12395;42.808;23.408;2023-02-12T00:50:05;95828.19;;;-2.96;79.91
24280;BME280;12395;42.808;23.408;2023-02-12T00:52:31;95835.97;;;-2.84;79.87
24280;BME280;12395;42.808;23.408;2023-02-12T00:54:56;95828.31;;;-2.85;79.77
24280;BME280;12395;42.808;23.408;2023-02-12T00:57:21;95856.19;;;-2.76;79.59
24280;BME280;12395;42.808;23.408;2023-02-12T00:59:47;95844.28;;;-2.79;80.19
24280;BME280;12395;42.808;23.408;2023-02-12T01:02:12;95853.09;;;-2.81;80.35
24280;BME280;12395;42.808;23.408;2023-02-12T01:04:38;95826.44;;;-2.96;80.09
24280;BME280;12395;42.808;23.408;2023-02-12T01:07:03;95845.72;;;-2.87;80.22
24280;BME280;12395;42.808;23.408;2023-02-12T01:09:28;95843.66;;;-2.82;80.24
24280;BME280;12395;42.808;23.408;2023-02-12T01:11:54;95825.28;;;-2.92;79.82
24280;BME280;12395;42.808;23.408;2023-02-12T01:14:19;95857.22;;;-2.79;79.82
24280;BME280;12395;42.808;23.408;2023-02-12T01:16:45;95842.19;;;-2.86;80.46
24280;BME280;12395;42.808;23.408;2023-02-12T01:19:11;95829.63;;;-2.92;80.52
24280;BME280;12395;42.808;23.408;2023-02-12T01:21:36;95839.41;;;-2.96;80.90
24280;BME280;12395;42.808;23.408;2023-02-12T01:24:02;95822.56;;;-3.16;81.47
24280;BME280;12395;42.808;23.408;2023-02-12T01:26:29;95841.69;;;-3.04;81.94
24280;BME280;12395;42.808;23.408;2023-02-12T01:28:58;95836.88;;;-3.10;81.50
24280;BME280;12395;42.808;23.408;2023-02-12T01:31:25;95837.28;;;-3.03;82.13
24280;BME280;12395;42.808;23.408;2023-02-12T01:33:52;95824.69;;;-2.95;82.36
24280;BME280;12395;42.808;23.408;2023-02-12T01:36:17;95812.31;;;-3.17;82.24
24280;BME280;12395;42.808;23.408;2023-02-12T01:38:43;95820.09;;;-3.04;83.00
24280;BME280;12395;42.808;23.408;2023-02-12T01:41:12;95814.50;;;-3.11;83.00
24280;BME280;12395;42.808;23.408;2023-02-12T01:43:38;95821.97;;;-3.06;82.73
24280;BME280;12395;42.808;23.408;2023-02-12T01:46:04;95797.19;;;-3.23;82.77
24280;BME280;12395;42.808;23.408;2023-02-12T01:48:34;95806.84;;;-3.13;83.21
24280;BME280;12395;42.808;23.408;2023-02-12T01:51:01;95807.22;;;-3.19;83.11
24280;BME280;12395;42.808;23.408;2023-02-12T01:53:33;95788.34;;;-3.21;83.55
24280;BME280;12395;42.808;23.408;2023-02-12T01:56:00;95813.22;;;-3.31;84.26
24280;BME280;12395;42.808;23.408;2023-02-12T01:58:30;95810.03;;;-3.34;84.09
24280;BME280;12395;42.808;23.408;2023-02-12T02:00:58;95796.22;;;-3.47;84.46
24280;BME280;12395;42.808;23.408;2023-02-12T02:03:24;95810.72;;;-3.57;84.79
24280;BME280;12395;42.808;23.408;2023-02-12T02:06:10;95823.97;;;-3.62;85.44
24280;BME280;12395;42.808;23.408;2023-02-12T02:08:37;95818.97;;;-3.65;85.44
24280;BME280;12395;42.808;23.408;2023-02-12T02:11:03;95808.94;;;-3.57;85.32
24280;BME280;12395;42.808;23.408;2023-02-12T02:13:49;95799.72;;;-3.48;84.33
24280;BME280;12395;42.808;23.408;2023-02-12T02:16:34;95804.81;;;-3.47;84.80
24280;BME280;12395;42.808;23.408;2023-02-12T02:19:04;95801.28;;;-3.46;84.27
24280;BME280;12395;42.808;23.408;2023-02-12T02:21:57;95800.16;;;-3.42;84.20
24280;BME280;12395;42.808;23.408;2023-02-12T02:29:52;95798.53;;;-3.30;83.11
24280;BME280;12395;42.808;23.408;2023-02-12T02:32:26;95795.53;;;-3.24;82.86
24280;BME280;12395;42.808;23.408;2023-02-12T02:35:14;95799.13;;;-3.27;82.93
24280;BME280;12395;42.808;23.408;2023-02-12T02:37:55;95803.19;;;-3.23;83.52
24280;BME280;12395;42.808;23.408;2023-02-12T02:40:26;95816.34;;;-3.26;83.75
24280;BME280;12395;42.808;23.408;2023-02-12T02:43:03;95817.28;;;-3.27;84.42
24280;BME280;12395;42.808;23.408;2023-02-12T02:45:37;95810.22;;;-3.25;84.52
24280;BME280;12395;42.808;23.408;2023-02-12T02:48:09;95810.75;;;-3.20;84.19
24280;BME280;12395;42.808;23.408;2023-02-12T02:50:41;95818.44;;;-3.05;83.85
24280;BME280;12395;42.808;23.408;2023-02-12T02:53:15;95799.91;;;-2.99;83.06
24280;BME280;12395;42.808;23.408;2023-02-12T02:55:50;95802.25;;;-2.84;83.45
24280;BME280;12395;42.808;23.408;2023-02-12T02:58:21;95805.16;;;-2.76;84.15
24280;BME280;12395;42.808;23.408;2023-02-12T03:00:58;95816.34;;;-2.63;83.65
24280;BME280;12395;42.808;23.408;2023-02-12T03:03:31;95805.97;;;-2.75;83.53
24280;BME280;12395;42.808;23.408;2023-02-12T03:06:03;95799.16;;;-2.76;82.87
24280;BME280;12395;42.808;23.408;2023-02-12T03:08:34;95805.03;;;-2.62;82.24
24280;BME280;12395;42.808;23.408;2023-02-12T03:11:24;95812.94;;;-2.63;83.00
24280;BME280;12395;42.808;23.408;2023-02-12T03:14:03;95810.41;;;-2.52;83.22
24280;BME280;12395;42.808;23.408;2023-02-12T03:16:34;95819.03;;;-2.52;82.83
24280;BME280;12395;42.808;23.408;2023-02-12T03:21:51;95818.56;;;-2.33;81.15
24280;BME280;12395;42.808;23.408;2023-02-12T03:24:42;95808.06;;;-2.19;79.67
24280;BME280;12395;42.808;23.408;2023-02-12T03:29:49;95805.22;;;-2.03;78.76
24280;BME280;12395;42.808;23.408;2023-02-12T03:32:29;95805.97;;;-1.90;77.92
24280;BME280;12395;42.808;23.408;2023-02-12T03:37:30;95791.75;;;-1.85;78.02
24280;BME280;12395;42.808;23.408;2023-02-12T03:40:06;95793.88;;;-1.79;79.06
24280;BME280;12395;42.808;23.408;2023-02-12T03:42:40;95797.84;;;-1.86;79.91
24280;BME280;12395;42.808;23.408;2023-02-12T03:45:17;95791.69;;;-1.96;78.69
24280;BME280;12395;42.808;23.408;2023-02-12T03:50:35;95802.91;;;-1.72;79.29
24280;BME280;12395;42.808;23.408;2023-02-12T03:53:04;95812.34;;;-1.71;78.91
24280;BME280;12395;42.808;23.408;2023-02-12T03:55:31;95795.56;;;-1.78;78.08
24280;BME280;12395;42.808;23.408;2023-02-12T03:58:00;95790.00;;;-1.73;78.62
24280;BME280;12395;42.808;23.408;2023-02-12T04:00:27;95794.66;;;-1.66;79.38
24280;BME280;12395;42.808;23.408;2023-02-12T04:02:53;95795.63;;;-1.56;79.29
24280;BME280;12395;42.808;23.408;2023-02-12T04:05:25;95779.72;;;-1.75;78.52
24280;BME280;12395;42.808;23.408;2023-02-12T04:07:52;95788.03;;;-1.70;79.05
24280;BME280;12395;42.808;23.408;2023-02-12T04:10:24;95790.84;;;-1.73;79.33
24280;BME280;12395;42.808;23.408;2023-02-12T04:12:56;95796.75;;;-1.71;79.84
24280;BME280;12395;42.808;23.408;2023-02-12T04:18:46;95798.03;;;-1.76;80.47
24280;BME280;12395;42.808;23.408;2023-02-12T04:21:32;95800.06;;;-1.69;80.57
24280;BME280;12395;42.808;23.408;2023-02-12T04:26:48;95801.78;;;-1.57;79.91
24280;BME280;12395;42.808;23.408;2023-02-12T04:32:14;95820.75;;;-1.43;80.71
24280;BME280;12395;42.808;23.408;2023-02-12T04:34:58;95806.66;;;-1.41;80.51
24280;BME280;12395;42.808;23.408;2023-02-12T04:37:40;95806.19;;;-1.46;80.51
24280;BME280;12395;42.808;23.408;2023-02-12T04:40:14;95798.72;;;-1.50;80.44
24280;BME280;12395;42.808;23.408;2023-02-12T04:42:46;95811.88;;;-1.41;80.35
24280;BME280;12395;42.808;23.408;2023-02-12T04:45:15;95804.22;;;-1.31;79.62
24280;BME280;12395;42.808;23.408;2023-02-12T04:47:41;95787.41;;;-1.38;79.47
24280;BME280;12395;42.808;23.408;2023-02-12T04:50:07;95801.00;;;-1.46;79.81
24280;BME280;12395;42.808;23.408;2023-02-12T04:52:33;95799.06;;;-1.55;79.64
24280;BME280;12395;42.808;23.408;2023-02-12T04:54:58;95803.25;;;-1.41;79.07
24280;BME280;12395;42.808;23.408;2023-02-12T04:57:24;95786.28;;;-1.58;79.21
24280;BME280;12395;42.808;23.408;2023-02-12T04:59:49;95820.13;;;-1.47;79.53
24280;BME280;12395;42.808;23.408;2023-02-12T05:02:14;95813.88;;;-1.44;79.65
24280;BME280;12395;42.808;23.408;2023-02-12T05:04:40;95814.69;;;-1.44;80.00
24280;BME280;12395;42.808;23.408;2023-02-12T05:07:05;95833.75;;;-1.32;80.90
24280;BME280;12395;42.808;23.408;2023-02-12T05:09:31;95823.25;;;-1.31;81.41
24280;BME280;12395;42.808;23.408;2023-02-12T05:11:57;95829.75;;;-1.25;81.10
24280;BME280;12395;42.808;23.408;2023-02-12T05:14:25;95827.75;;;-1.33;79.86
24280;BME280;12395;42.808;23.408;2023-02-12T05:16:50;95826.16;;;-1.46;78.57
24280;BME280;12395;42.808;23.408;2023-02-12T05:19:16;95818.84;;;-1.41;79.12
24280;BME280;12395;42.808;23.408;2023-02-12T05:21:42;95826.75;;;-1.43;78.53
24280;BME280;12395;42.808;23.408;2023-02-12T05:24:07;95835.25;;;-1.41;78.57
24280;BME280;12395;42.808;23.408;2023-02-12T05:26:33;95830.22;;;-1.31;77.75
24280;BME280;12395;42.808;23.408;2023-02-12T05:28:59;95819.91;;;-1.44;77.09
24280;BME280;12395;42.808;23.408;2023-02-12T05:31:25;95850.94;;;-1.19;76.09
24280;BME280;12395;42.808;23.408;2023-02-12T05:33:51;95824.09;;;-1.19;76.38
24280;BME280;12395;42.808;23.408;2023-02-12T05:36:19;95838.19;;;-1.11;77.19
24280;BME280;12395;42.808;23.408;2023-02-12T05:38:45;95832.78;;;-1.08;75.13
24280;BME280;12395;42.808;23.408;2023-02-12T05:41:14;95855.63;;;-0.89;74.59
24280;BME280;12395;42.808;23.408;2023-02-12T05:43:41;95830.69;;;-1.03;74.23
24280;BME280;12395;42.808;23.408;2023-02-12T05:46:07;95849.72;;;-0.91;73.85
24280;BME280;12395;42.808;23.408;2023-02-12T05:48:34;95833.88;;;-0.99;73.72
24280;BME280;12395;42.808;23.408;2023-02-12T05:53:31;95840.97;;;-0.90;73.64
24280;BME280;12395;42.808;23.408;2023-02-12T05:58:35;95867.00;;;-0.79;72.25
24280;BME280;12395;42.808;23.408;2023-02-12T06:01:01;95855.66;;;-0.78;72.81
24280;BME280;12395;42.808;23.408;2023-02-12T06:03:26;95850.22;;;-0.75;73.89
24280;BME280;12395;42.808;23.408;2023-02-12T06:05:52;95849.28;;;-0.63;75.89
24280;BME280;12395;42.808;23.408;2023-02-12T06:08:18;95848.59;;;-0.65;74.91
24280;BME280;12395;42.808;23.408;2023-02-12T06:10:43;95865.16;;;-0.55;73.70
24280;BME280;12395;42.808;23.408;2023-02-12T06:13:08;95861.72;;;-0.55;72.68
24280;BME280;12395;42.808;23.408;2023-02-12T06:15:37;95872.03;;;-0.43;71.96
24280;BME280;12395;42.808;23.408;2023-02-12T06:18:02;95871.78;;;-0.40;73.31
24280;BME280;12395;42.808;23.408;2023-02-12T06:20:28;95870.72;;;-0.37;73.35
24280;BME280;12395;42.808;23.408;2023-02-12T06:22:53;95879.13;;;-0.23;72.44
24280;BME280;12395;42.808;23.408;2023-02-12T06:25:19;95873.94;;;-0.23;71.89
24280;BME280;12395;42.808;23.408;2023-02-12T06:27:44;95863.38;;;-0.21;71.53
24280;BME280;12395;42.808;23.408;2023-02-12T06:32:00;95871.31;;;-0.12;71.77
24280;BME280;12395;42.808;23.408;2023-02-12T06:34:25;95856.88;;;-0.16;71.67
24280;BME280;12395;42.808;23.408;2023-02-12T06:36:50;95877.94;;;-0.08;72.11
24280;BME280;12395;42.808;23.408;2023-02-12T06:39:19;95859.13;;;-0.11;72.83
24280;BME280;12395;42.808;23.408;2023-02-12T06:41:44;95878.31;;;-0.01;72.68
24280;BME280;12395;42.808;23.408;2023-02-12T06:44:14;95881.75;;;0.11;73.50
24280;BME280;12395;42.808;23.408;2023-02-12T06:46:39;95859.50;;;-0.05;73.92
24280;BME280;12395;42.808;23.408;2023-02-12T06:49:05;95873.66;;;0.03;74.40
24280;BME280;12395;42.808;23.408;2023-02-12T06:51:30;95880.28;;;0.07;75.56
24280;BME280;12395;42.808;23.408;2023-02-12T06:53:56;95875.22;;;-0.06;75.78
24280;BME280;12395;42.808;23.408;2023-02-12T06:56:23;95890.50;;;-0.02;76.59
24280;BME280;12395;42.808;23.408;2023-02-12T06:58:55;95868.13;;;-0.15;77.04
24280;BME280;12395;42.808;23.408;2023-02-12T07:01:23;95888.16;;;-0.05;78.12
24280;BME280;12395;42.808;23.408;2023-02-12T07:03:58;95891.19;;;0.00;78.22
24280;BME280;12395;42.808;23.408;2023-02-12T07:06:25;95877.81;;;-0.06;78.90
24280;BME280;12395;42.808;23.408;2023-02-12T07:08:51;95872.50;;;-0.05;79.24
24280;BME280;12395;42.808;23.408;2023-02-12T07:11:17;95878.78;;;0.04;80.26
24280;BME280;12395;42.808;23.408;2023-02-12T07:13:43;95872.75;;;-0.08;80.92
24280;BME280;12395;42.808;23.408;2023-02-12T07:16:12;95899.63;;;-0.07;82.52
24280;BME280;12395;42.808;23.408;2023-02-12T07:18:38;95881.38;;;-0.07;82.40
24280;BME280;12395;42.808;23.408;2023-02-12T07:21:04;95890.72;;;0.07;82.62
24280;BME280;12395;42.808;23.408;2023-02-12T07:23:31;95897.69;;;0.17;82.65
24280;BME280;12395;42.808;23.408;2023-02-12T07:26:01;95907.06;;;0.20;82.62
24280;BME280;12395;42.808;23.408;2023-02-12T07:28:26;95890.25;;;0.13;82.10
24280;BME280;12395;42.808;23.408;2023-02-12T07:30:52;95911.19;;;0.22;82.66
24280;BME280;12395;42.808;23.408;2023-02-12T07:33:18;95906.56;;;0.26;83.02
24280;BME280;12395;42.808;23.408;2023-02-12T07:35:44;95894.63;;;0.12;83.45
24280;BME280;12395;42.808;23.408;2023-02-12T07:38:09;95888.59;;;0.12;83.68
24280;BME280;12395;42.808;23.408;2023-02-12T07:40:35;95893.81;;;0.12;83.69
24280;BME280;12395;42.808;23.408;2023-02-12T07:43:00;95898.53;;;0.18;83.53
24280;BME280;12395;42.808;23.408;2023-02-12T07:45:26;95907.06;;;0.20;82.72
24280;BME280;12395;42.808;23.408;2023-02-12T07:47:51;95912.97;;;0.33;81.23
24280;BME280;12395;42.808;23.408;2023-02-12T07:50:17;95893.31;;;0.29;80.52
24280;BME280;12395;42.808;23.408;2023-02-12T07:52:42;95898.38;;;0.41;79.80
24280;BME280;12395;42.808;23.408;2023-02-12T07:55:08;95906.53;;;0.48;78.88
24280;BME280;12395;42.808;23.408;2023-02-12T07:57:34;95909.63;;;0.53;79.34
24280;BME280;12395;42.808;23.408;2023-02-12T08:00:00;95907.94;;;0.52;77.48
24280;BME280;12395;42.808;23.408;2023-02-12T08:02:25;95899.06;;;0.43;77.05
24280;BME280;12395;42.808;23.408;2023-02-12T08:04:55;95917.06;;;0.57;77.65
24280;BME280;12395;42.808;23.408;2023-02-12T08:07:21;95893.28;;;0.40;77.20
24280;BME280;12395;42.808;23.408;2023-02-12T08:09:47;95899.91;;;0.55;76.64
24280;BME280;12395;42.808;23.408;2023-02-12T08:12:12;95899.91;;;0.55;75.36
24280;BME280;12395;42.808;23.408;2023-02-12T08:14:37;95908.66;;;0.54;74.97
24280;BME280;12395;42.808;23.408;2023-02-12T08:17:03;95916.94;;;0.59;75.38
24280;BME280;12395;42.808;23.408;2023-02-12T08:19:28;95909.00;;;0.60;76.16
24280;BME280;12395;42.808;23.408;2023-02-12T08:21:54;95907.09;;;0.62;76.82
24280;BME280;12395;42.808;23.408;2023-02-12T08:24:20;95899.75;;;0.67;76.96
24280;BME280;12395;42.808;23.408;2023-02-12T08:26:49;95921.41;;;0.79;77.25
24280;BME280;12395;42.808;23.408;2023-02-12T08:29:25;95923.72;;;0.93;77.11
24280;BME280;12395;42.808;23.408;2023-02-12T08:31:59;95938.50;;;1.04;78.27
24280;BME280;12395;42.808;23.408;2023-02-12T08:34:27;95925.38;;;0.94;78.48
24280;BME280;12395;42.808;23.408;2023-02-12T08:36:53;95942.66;;;1.06;78.59
24280;BME280;12395;42.808;23.408;2023-02-12T08:39:20;95936.72;;;1.04;79.02
24280;BME280;12395;42.808;23.408;2023-02-12T08:41:46;95927.19;;;1.14;79.65
24280;BME280;12395;42.808;23.408;2023-02-12T08:44:12;95926.19;;;1.26;79.42
24280;BME280;12395;42.808;23.408;2023-02-12T08:46:39;95940.03;;;1.38;79.00
24280;BME280;12395;42.808;23.408;2023-02-12T08:49:10;95922.78;;;1.46;78.68
24280;BME280;12395;42.808;23.408;2023-02-12T08:51:39;95938.88;;;1.72;77.89
24280;BME280;12395;42.808;23.408;2023-02-12T08:54:06;95936.66;;;1.68;77.80
24280;BME280;12395;42.808;23.408;2023-02-12T08:56:34;95942.38;;;1.62;77.63
24280;BME280;12395;42.808;23.408;2023-02-12T08:59:01;95936.25;;;1.72;76.66
24280;BME280;12395;42.808;23.408;2023-02-12T09:01:30;95943.53;;;1.69;75.36
24280;BME280;12395;42.808;23.408;2023-02-12T09:03:57;95932.19;;;1.79;74.17
24280;BME280;12395;42.808;23.408;2023-02-12T09:06:24;95932.69;;;1.94;74.69
24280;BME280;12395;42.808;23.408;2023-02-12T09:08:50;95955.94;;;2.27;72.89
24280;BME280;12395;42.808;23.408;2023-02-12T09:11:18;95956.25;;;2.33;73.44
24280;BME280;12395;42.808;23.408;2023-02-12T09:13:46;95941.38;;;2.34;72.94
24280;BME280;12395;42.808;23.408;2023-02-12T09:16:12;95960.50;;;2.65;72.01
24280;BME280;12395;42.808;23.408;2023-02-12T09:18:38;95964.06;;;2.64;72.03
24280;BME280;12395;42.808;23.408;2023-02-12T09:21:14;95963.81;;;2.67;72.12
24280;BME280;12395;42.808;23.408;2023-02-12T09:23:42;95958.13;;;2.52;72.29
24280;BME280;12395;42.808;23.408;2023-02-12T09:26:12;95966.91;;;2.51;72.08
24280;BME280;12395;42.808;23.408;2023-02-12T09:28:39;95971.59;;;2.57;72.99
24280;BME280;12395;42.808;23.408;2023-02-12T09:31:10;95972.06;;;2.62;72.53
24280;BME280;12395;42.808;23.408;2023-02-12T09:33:36;95980.59;;;2.64;72.32
24280;BME280;12395;42.808;23.408;2023-02-12T09:36:04;95965.34;;;2.69;72.56
24280;BME280;12395;42.808;23.408;2023-02-12T09:38:30;95972.50;;;2.67;72.59
24280;BME280;12395;42.808;23.408;2023-02-12T09:51:57;95983.25;;;2.83;73.43
24280;BME280;12395;42.808;23.408;2023-02-12T09:54:27;95974.72;;;2.81;74.25
24280;BME280;12395;42.808;23.408;2023-02-12T09:56:56;95970.22;;;2.93;73.78
24280;BME280;12395;42.808;23.408;2023-02-12T09:59:40;95955.34;;;3.12;73.16
24280;BME280;12395;42.808;23.408;2023-02-12T10:02:15;95975.47;;;3.41;71.46
24280;BME280;12395;42.808;23.408;2023-02-12T10:04:42;95987.31;;;3.26;71.51
24280;BME280;12395;42.808;23.408;2023-02-12T10:12:59;95984.03;;;3.33;71.95
24280;BME280;12395;42.808;23.408;2023-02-12T10:21:17;95996.75;;;3.57;71.21
24280;BME280;12395;42.808;23.408;2023-02-12T10:24:13;96002.25;;;3.54;71.96
24280;BME280;12395;42.808;23.408;2023-02-12T10:26:47;96005.28;;;3.59;71.02
24280;BME280;12395;42.808;23.408;2023-02-12T10:29:28;95985.28;;;3.58;70.81
24280;BME280;12395;42.808;23.408;2023-02-12T10:35:15;95983.19;;;4.00;69.63
24280;BME280;12395;42.808;23.408;2023-02-12T10:37:54;95972.84;;;3.88;69.57
24280;BME280;12395;42.808;23.408;2023-02-12T10:40:29;95984.84;;;3.91;68.79
24280;BME280;12395;42.808;23.408;2023-02-12T10:42:57;95991.19;;;3.79;69.54
24280;BME280;12395;42.808;23.408;2023-02-12T10:45:32;95981.13;;;3.74;69.37
24280;BME280;12395;42.808;23.408;2023-02-12T10:48:26;95992.03;;;3.79;68.80
24280;BME280;12395;42.808;23.408;2023-02-12T10:53:34;95997.53;;;3.86;69.66
24280;BME280;12395;42.808;23.408;2023-02-12T10:58:32;95982.25;;;3.72;70.52
24280;BME280;12395;42.808;23.408;2023-02-12T11:00:59;95989.00;;;3.84;70.22
24280;BME280;12395;42.808;23.408;2023-02-12T11:03:31;95986.91;;;3.97;69.82
24280;BME280;12395;42.808;23.408;2023-02-12T11:06:11;95968.44;;;3.89;68.44
24280;BME280;12395;42.808;23.408;2023-02-12T11:08:38;95987.31;;;3.92;68.85
24280;BME280;12395;42.808;23.408;2023-02-12T11:11:13;95979.84;;;4.07;68.51
24280;BME280;12395;42.808;23.408;2023-02-12T11:13:46;95988.09;;;4.22;69.43
24280;BME280;12395;42.808;23.408;2023-02-12T11:16:33;95974.44;;;4.18;68.86
24280;BME280;12395;42.808;23.408;2023-02-12T11:19:19;95973.28;;;4.40;67.70
24280;BME280;12395;42.808;23.408;2023-02-12T11:21:45;95952.19;;;4.32;67.61
24280;BME280;12395;42.808;23.408;2023-02-12T11:24:25;95988.00;;;4.50;67.76
24280;BME280;12395;42.808;23.408;2023-02-12T11:27:10;95985.19;;;4.61;67.64
24280;BME280;12395;42.808;23.408;2023-02-12T11:29:36;95984.03;;;4.74;66.23
24280;BME280;12395;42.808;23.408;2023-02-12T11:32:07;95975.19;;;4.75;65.22
24280;BME280;12395;42.808;23.408;2023-02-12T11:34:33;95971.91;;;4.73;65.20
24280;BME280;12395;42.808;23.408;2023-02-12T11:36:59;95965.47;;;4.85;65.33
24280;BME280;12395;42.808;23.408;2023-02-12T11:42:03;95991.97;;;4.91;66.16
24280;BME280;12395;42.808;23.408;2023-02-12T11:44:40;95970.03;;;4.83;64.54
24280;BME280;12395;42.808;23.408;2023-02-12T11:47:10;95982.09;;;4.76;64.83
24280;BME280;12395;42.808;23.408;2023-02-12T11:49:47;95977.75;;;4.57;65.44
24280;BME280;12395;42.808;23.408;2023-02-12T11:52:26;95988.00;;;4.78;64.97
24280;BME280;12395;42.808;23.408;2023-02-12T11:54:55;95990.94;;;4.75;65.63
24280;BME280;12395;42.808;23.408;2023-02-12T11:57:46;95992.94;;;4.53;65.52
24280;BME280;12395;42.808;23.408;2023-02-12T12:00:28;95986.41;;;4.67;65.80
24280;BME280;12395;42.808;23.408;2023-02-12T12:03:00;95985.69;;;4.75;65.79
24280;BME280;12395;42.808;23.408;2023-02-12T12:05:37;95989.00;;;4.77;64.50
24280;BME280;12395;42.808;23.408;2023-02-12T12:08:15;95985.16;;;4.71;64.96
24280;BME280;12395;42.808;23.408;2023-02-12T12:10:47;95986.16;;;4.88;64.96
24280;BME280;12395;42.808;23.408;2023-02-12T12:13:22;95980.22;;;4.58;65.13
24280;BME280;12395;42.808;23.408;2023-02-12T12:16:05;95983.69;;;4.59;65.51
24280;BME280;12395;42.808;23.408;2023-02-12T12:18:57;95984.38;;;4.61;65.66
24280;BME280;12395;42.808;23.408;2023-02-12T12:24:55;95994.63;;;4.82;65.40
24280;BME280;12395;42.808;23.408;2023-02-12T12:33:43;95984.75;;;4.29;65.87
24280;BME280;12395;42.808;23.408;2023-02-12T12:41:28;95989.75;;;4.23;67.23
24280;BME280;12395;42.808;23.408;2023-02-12T12:50:04;96002.19;;;4.11;67.17
24280;BME280;12395;42.808;23.408;2023-02-12T12:55:43;95999.84;;;4.54;66.50
24280;BME280;12395;42.808;23.408;2023-02-12T13:04:36;96007.22;;;4.78;63.28
24280;BME280;12395;42.808;23.408;2023-02-12T13:07:23;96007.47;;;4.85;63.18
24280;BME280;12395;42.808;23.408;2023-02-12T13:10:05;96018.31;;;4.99;62.57
24280;BME280;12395;42.808;23.408;2023-02-12T13:12:47;96003.00;;;4.95;62.96
24280;BME280;12395;42.808;23.408;2023-02-12T13:15:26;96002.72;;;4.98;62.76
24280;BME280;12395;42.808;23.408;2023-02-12T13:20:46;96019.69;;;5.03;62.66
24280;BME280;12395;42.808;23.408;2023-02-12T13:23:16;96014.56;;;5.02;62.14
24280;BME280;12395;42.808;23.408;2023-02-12T13:28:36;96018.16;;;5.01;62.98
24280;BME280;12395;42.808;23.408;2023-02-12T13:31:03;96027.50;;;5.13;62.32
24280;BME280;12395;42.808;23.408;2023-02-12T13:33:42;96001.91;;;4.88;61.69
24280;BME280;12395;42.808;23.408;2023-02-12T13:36:09;96025.53;;;4.88;62.12
24280;BME280;12395;42.808;23.408;2023-02-12T13:38:41;96019.94;;;4.73;62.46
24280;BME280;12395;42.808;23.408;2023-02-12T13:41:09;96032.28;;;4.73;62.86
24280;BME280;12395;42.808;23.408;2023-02-12T13:43:45;96034.75;;;4.74;63.10
24280;BME280;12395;42.808;23.408;2023-02-12T13:54:52;96039.31;;;4.62;63.81
24280;BME280;12395;42.808;23.408;2023-02-12T13:57:20;96030.50;;;4.63;63.94
24280;BME280;12395;42.808;23.408;2023-02-12T13:59:47;96049.22;;;4.78;63.76
24280;BME280;12395;42.808;23.408;2023-02-12T14:10:35;96059.69;;;4.88;62.89
24280;BME280;12395;42.808;23.408;2023-02-12T14:13:14;96063.03;;;4.80;62.94
24280;BME280;12395;42.808;23.408;2023-02-12T14:15:42;96071.31;;;4.85;63.31
24280;BME280;12395;42.808;23.408;2023-02-12T14:18:34;96073.13;;;4.75;62.89
24280;BME280;12395;42.808;23.408;2023-02-12T14:23:44;96071.09;;;4.69;62.64
24280;BME280;12395;42.808;23.408;2023-02-12T14:26:19;96097.03;;;4.82;63.34
24280;BME280;12395;42.808;23.408;2023-02-12T14:33:43;96095.06;;;4.93;63.09
24280;BME280;12395;42.808;23.408;2023-02-12T14:49:32;96123.13;;;5.20;61.96
24280;BME280;12395;42.808;23.408;2023-02-12T14:52:05;96127.44;;;5.21;61.68
24280;BME280;12395;42.808;23.408;2023-02-12T14:54:56;96130.91;;;5.21;60.87
24280;BME280;12395;42.808;23.408;2023-02-12T14:57:29;96112.44;;;5.04;61.37
24280;BME280;12395;42.808;23.408;2023-02-12T15:02:44;96128.59;;;5.09;62.72
24280;BME280;12395;42.808;23.408;2023-02-12T15:05:46;96137.06;;;4.93;61.90
24280;BME280;12395;42.808;23.408;2023-02-12T15:08:27;96140.09;;;4.98;61.71
24280;BME280;12395;42.808;23.408;2023-02-12T15:11:03;96144.78;;;4.95;62.70
24280;BME280;12395;42.808;23.408;2023-02-12T15:21:53;96169.47;;;4.75;64.08
24280;BME280;12395;42.808;23.408;2023-02-12T15:24:24;96169.72;;;4.62;64.85
24280;BME280;12395;42.808;23.408;2023-02-12T15:26:52;96179.69;;;4.58;65.22
24280;BME280;12395;42.808;23.408;2023-02-12T15:31:49;96173.06;;;4.35;66.18
24280;BME280;12395;42.808;23.408;2023-02-12T15:34:19;96179.56;;;4.31;66.39
24280;BME280;12395;42.808;23.408;2023-02-12T15:36:46;96176.13;;;4.21;66.52
24280;BME280;12395;42.808;23.408;2023-02-12T15:39:18;96206.63;;;4.22;66.63
24280;BME280;12395;42.808;23.408;2023-02-12T15:41:47;96203.28;;;4.11;66.99
24280;BME280;12395;42.808;23.408;2023-02-12T15:44:21;96209.78;;;4.16;66.97